Time;durP1;ratioP1;P1;durP2;ratioP2;P2;SDS_P1;SDS_P2;PMS_P1;PMS_P2;Temp;Humidity;BMP_temperature;BMP_pressure;BME280_temperature;BME280_humidity;BME280_pressure;Samples;Min_cycle;Max_cycle;Signal;HPM_P1;HPM_P2
2023/04/05 00:00:00;;;;;;;21.13;9.60;;;;;;;-145.18;100.00;46773.69;6181324;23;20005;-72
2023/04/05 00:02:28;;;;;;;18.10;9.40;;;;;;;-145.18;100.00;46761.97;6181395;23;20739;-72
2023/04/05 00:04:57;;;;;;;20.53;9.77;;;;;;;-145.18;100.00;46740.47;6180938;23;20044;-72
2023/04/05 00:07:23;;;;;;;13.60;8.67;;;;;;;-145.18;100.00;46730.72;6181207;23;20233;-72
2023/04/05 00:09:48;;;;;;;14.57;8.77;;;;;;;-145.18;100.00;46732.66;6181338;23;20227;-73
2023/04/05 00:12:14;;;;;;;17.77;8.60;;;;;;;-145.18;100.00;46719.00;6181378;23;20258;-73
2023/04/05 00:14:40;;;;;;;17.80;9.70;;;;;;;-145.18;100.00;46711.19;6183528;23;20052;-73
2023/04/05 00:17:05;;;;;;;14.93;8.63;;;;;;;-145.18;100.00;46685.78;6183261;23;20045;-73
2023/04/05 00:19:32;;;;;;;14.83;8.80;;;;;;;-145.18;100.00;46679.94;6183391;23;20071;-73
2023/04/05 00:21:58;;;;;;;17.03;9.50;;;;;;;-145.18;100.00;46674.06;6183149;23;20016;-73
2023/04/05 00:24:24;;;;;;;18.73;9.70;;;;;;;-145.18;100.00;46672.13;6183839;23;20592;-73
2023/04/05 00:26:49;;;;;;;15.73;9.60;;;;;;;-145.18;100.00;46668.22;6183183;23;20245;-73
2023/04/05 00:29:15;;;;;;;14.93;9.47;;;;;;;-145.18;100.00;46668.22;6183377;23;20469;-73
2023/04/05 00:31:40;;;;;;;14.40;9.23;;;;;;;-145.18;100.00;46672.13;6183564;23;20052;-72
2023/04/05 00:34:07;;;;;;;18.17;9.17;;;;;;;-145.18;100.00;46676.03;6183141;23;20013;-73
2023/04/05 00:36:33;;;;;;;17.53;8.90;;;;;;;-145.18;100.00;46679.94;6183235;23;20005;-72
2023/04/05 00:38:59;;;;;;;15.80;9.37;;;;;;;-145.18;100.00;46664.31;6183039;23;20234;-73
2023/04/05 00:41:24;;;;;;;20.03;9.77;;;;;;;-145.18;100.00;46691.66;6183296;23;20092;-72
2023/04/05 00:43:49;;;;;;;17.17;9.43;;;;;;;-145.18;100.00;46685.78;6183184;23;20338;-72
2023/04/05 00:46:15;;;;;;;16.93;9.73;;;;;;;-145.18;100.00;46697.50;6182869;23;20446;-72
2023/04/05 00:48:41;;;;;;;20.23;10.03;;;;;;;-145.18;100.00;46676.03;6183215;23;20553;-72
2023/04/05 00:51:10;;;;;;;19.33;10.60;;;;;;;-145.18;100.00;46683.84;6182737;23;20017;-73
2023/04/05 00:53:36;;;;;;;21.70;10.70;;;;;;;-145.18;100.00;46681.88;6183050;23;20031;-73
2023/04/05 00:56:02;;;;;;;20.83;10.90;;;;;;;-145.18;100.00;46679.94;6182628;23;20318;-73
2023/04/05 00:58:28;;;;;;;23.52;10.90;;;;;;;-145.18;100.00;46662.34;6183187;23;20152;-72
2023/04/05 01:01:12;;;;;;;16.50;9.70;;;;;;;-145.18;100.00;46672.13;6183136;23;20442;-73
2023/04/05 01:03:42;;;;;;;17.48;11.38;;;;;;;-145.18;100.00;46660.41;6183340;23;20020;-72
2023/04/05 01:06:35;;;;;;;17.37;10.50;;;;;;;-145.18;100.00;46660.41;6183312;23;20001;-72
2023/04/05 01:09:07;;;;;;;22.20;12.00;;;;;;;-145.18;100.00;46646.72;6183541;23;20461;-73
2023/04/05 01:11:36;;;;;;;21.60;11.20;;;;;;;-145.18;100.00;46638.91;6183122;23;20251;-73
2023/04/05 01:14:02;;;;;;;18.98;11.30;;;;;;;-145.18;100.00;46636.94;6183180;23;20250;-73
2023/04/05 01:16:27;;;;;;;18.90;11.47;;;;;;;-145.18;100.00;46644.78;6183143;23;20431;-74
2023/04/05 01:18:57;;;;;;;20.57;11.90;;;;;;;-145.18;100.00;46629.13;6183128;23;20015;-74
2023/04/05 01:21:37;;;;;;;22.23;12.37;;;;;;;-145.18;100.00;46633.06;6182920;23;20005;-73
2023/04/05 01:24:15;;;;;;;19.00;11.93;;;;;;;-145.18;100.00;46636.94;6182241;23;20230;-73
2023/04/05 01:26:56;;;;;;;22.33;11.87;;;;;;;-145.18;100.00;46635.00;6182892;23;20231;-73
2023/04/05 01:29:37;;;;;;;19.37;11.20;;;;;;;-145.18;100.00;46635.00;6182983;23;20322;-73
2023/04/05 01:32:24;;;;;;;24.33;11.80;;;;;;;-145.18;100.00;46638.91;6182264;23;20269;-73
2023/04/05 01:35:09;;;;;;;23.85;12.48;;;;;;;-145.18;100.00;46644.78;6183122;23;20229;-73
2023/04/05 01:37:37;;;;;;;23.05;11.15;;;;;;;-145.18;100.00;46646.72;6182497;23;20005;-73
2023/04/05 01:40:05;;;;;;;20.90;12.85;;;;;;;-145.18;100.00;46633.06;6182629;23;20032;-73
2023/04/05 01:42:30;;;;;;;22.77;12.80;;;;;;;-145.18;100.00;46627.19;6182770;23;20088;-73
2023/04/05 01:44:56;;;;;;;23.37;12.63;;;;;;;-145.18;100.00;46629.13;6183018;23;20036;-73
2023/04/05 01:47:22;;;;;;;19.13;12.20;;;;;;;-145.18;100.00;46631.09;6182659;23;20013;-73
2023/04/05 01:49:47;;;;;;;20.83;11.70;;;;;;;-145.18;100.00;46625.22;6183234;23;20378;-73
2023/04/05 01:52:13;;;;;;;19.53;10.73;;;;;;;-145.18;100.00;46621.31;6182206;23;20051;-73
2023/04/05 01:54:38;;;;;;;19.37;10.67;;;;;;;-145.18;100.00;46660.41;6182961;23;20039;-72
2023/04/05 01:57:04;;;;;;;21.57;11.20;;;;;;;-145.18;100.00;46660.41;6182471;23;20013;-73
2023/04/05 01:59:30;;;;;;;23.23;11.47;;;;;;;-145.18;100.00;46660.41;6182749;23;20012;-72
2023/04/05 02:01:56;;;;;;;21.35;12.05;;;;;;;-145.18;100.00;46654.53;6157126;23;20021;-71
2023/04/05 02:04:21;;;;;;;18.37;11.93;;;;;;;-145.18;100.00;46658.44;6182311;23;20006;-71
2023/04/05 02:06:47;;;;;;;20.07;11.67;;;;;;;-145.18;100.00;46625.22;6155745;23;20501;-71
2023/04/05 02:09:12;;;;;;;20.30;11.47;;;;;;;-145.18;100.00;46660.41;6183028;23;20009;-70
2023/04/05 02:11:37;;;;;;;22.10;12.93;;;;;;;-145.18;100.00;46660.41;6181707;23;20016;-70
2023/04/05 02:14:03;;;;;;;19.10;11.13;;;;;;;-145.18;100.00;46652.59;6181996;23;20397;-70
2023/04/05 02:16:32;;;;;;;20.63;10.13;;;;;;;-145.18;100.00;46660.41;6182516;23;20068;-71
2023/04/05 02:18:58;;;;;;;22.13;12.20;;;;;;;-145.18;100.00;46658.44;6182633;23;20012;-70
2023/04/05 02:21:27;;;;;;;21.10;12.67;;;;;;;-145.18;100.00;46654.53;6182823;23;20318;-70
2023/04/05 02:23:53;;;;;;;28.42;12.75;;;;;;;-145.18;100.00;46652.59;6182406;23;20231;-70
2023/04/05 02:26:19;;;;;;;20.92;11.90;;;;;;;-145.18;100.00;46658.44;6183074;23;20028;-70
2023/04/05 02:28:46;;;;;;;23.27;13.38;;;;;;;-145.18;100.00;46660.41;6182616;23;20005;-70
2023/04/05 02:31:12;;;;;;;20.63;11.43;;;;;;;-145.18;100.00;46660.41;6182921;23;20111;-71
2023/04/05 02:33:38;;;;;;;22.92;13.05;;;;;;;-145.18;100.00;46652.59;6182686;23;20088;-71
2023/04/05 02:36:06;;;;;;;22.25;11.93;;;;;;;-145.18;100.00;46656.50;6182205;23;20037;-70
2023/04/05 02:38:32;;;;;;;20.98;11.73;;;;;;;-145.18;100.00;46640.88;6182636;23;20016;-70
2023/04/05 02:40:57;;;;;;;21.83;12.57;;;;;;;-145.18;100.00;46640.88;6182759;23;20330;-69
2023/04/05 02:43:23;;;;;;;19.53;11.03;;;;;;;-145.18;100.00;46640.88;6182185;23;20017;-69
2023/04/05 02:45:48;;;;;;;18.70;11.30;;;;;;;-145.18;100.00;46656.50;6182982;23;20431;-69
2023/04/05 02:48:14;;;;;;;19.07;11.93;;;;;;;-145.18;100.00;46658.44;6182187;23;20037;-68
2023/04/05 02:50:39;;;;;;;18.67;12.40;;;;;;;-145.18;100.00;46660.41;6182885;23;20015;-69
2023/04/05 02:53:04;;;;;;;22.47;13.17;;;;;;;-145.18;100.00;46660.41;6181855;23;20017;-68
2023/04/05 02:55:33;;;;;;;23.87;13.10;;;;;;;-145.18;100.00;46627.19;6183039;23;20036;-68
2023/04/05 02:58:01;;;;;;;22.15;12.48;;;;;;;-145.18;100.00;46625.22;6181993;23;20502;-68
2023/04/05 03:00:27;;;;;;;22.35;13.10;;;;;;;-145.18;100.00;46625.22;6182554;23;20013;-68
2023/04/05 03:02:53;;;;;;;27.90;13.40;;;;;;;-145.18;100.00;46660.41;6181881;23;20439;-68
2023/04/05 03:05:19;;;;;;;22.90;13.33;;;;;;;-145.18;100.00;46627.19;6182637;23;20064;-68
2023/04/05 03:07:45;;;;;;;20.88;12.88;;;;;;;-145.18;100.00;46627.19;6182139;23;20004;-68
2023/04/05 03:10:12;;;;;;;22.58;13.65;;;;;;;-145.18;100.00;46658.44;6182669;23;20067;-68
2023/04/05 03:12:38;;;;;;;21.55;13.07;;;;;;;-145.18;100.00;46629.13;6182295;23;20449;-68
2023/04/05 03:15:04;;;;;;;23.70;13.80;;;;;;;-145.18;100.00;46625.22;6182645;23;20009;-67
2023/04/05 03:17:29;;;;;;;21.02;13.00;;;;;;;-145.18;100.00;46658.44;6155665;23;20036;-67
2023/04/05 03:19:55;;;;;;;23.83;12.33;;;;;;;-145.18;100.00;46652.59;6182802;23;20013;-67
2023/04/05 03:22:20;;;;;;;21.10;12.90;;;;;;;-145.18;100.00;46638.91;6182230;23;20032;-67
2023/04/05 03:24:46;;;;;;;27.57;13.00;;;;;;;-145.18;100.00;46642.81;6182442;23;20067;-67
2023/04/05 03:27:13;;;;;;;20.97;13.33;;;;;;;-145.18;100.00;46635.00;6182213;23;20008;-67
2023/04/05 03:29:40;;;;;;;22.20;12.90;;;;;;;-145.18;100.00;46640.88;6182712;23;20370;-67
2023/04/05 03:32:10;;;;;;;24.17;13.50;;;;;;;-145.18;100.00;46640.88;6181666;23;20109;-67
2023/04/05 03:34:37;;;;;;;19.63;12.77;;;;;;;-145.18;100.00;46650.63;6182258;23;20009;-67
2023/04/05 03:37:03;;;;;;;24.10;13.30;;;;;;;-145.18;100.00;46652.59;6155558;23;20009;-67
2023/04/05 03:39:28;;;;;;;25.77;13.60;;;;;;;-145.18;100.00;46642.81;6182356;23;20009;-68
2023/04/05 03:41:55;;;;;;;23.90;12.87;;;;;;;-145.18;100.00;46656.50;6181830;23;20009;-67
2023/04/05 03:44:21;;;;;;;24.00;12.40;;;;;;;-145.18;100.00;46660.41;6182244;23;20005;-67
2023/04/05 03:46:46;;;;;;;20.93;13.30;;;;;;;-145.18;100.00;46660.41;6182124;23;20020;-68
2023/04/05 03:49:11;;;;;;;19.17;12.70;;;;;;;-145.18;100.00;46650.63;6181590;23;20055;-68
2023/04/05 03:51:37;;;;;;;24.43;13.30;;;;;;;-145.18;100.00;46658.44;6181973;23;20041;-67
2023/04/05 03:54:02;;;;;;;23.90;13.33;;;;;;;-145.18;100.00;46654.53;6181613;23;20009;-67
2023/04/05 03:56:28;;;;;;;25.00;14.03;;;;;;;-145.18;100.00;46656.50;6182204;23;20009;-67
2023/04/05 03:58:53;;;;;;;22.80;13.40;;;;;;;-145.18;100.00;46660.41;6181690;23;20009;-67
2023/04/05 04:01:19;;;;;;;21.93;12.57;;;;;;;-145.18;100.00;46625.22;6181958;23;20005;-67
2023/04/05 04:03:44;;;;;;;16.77;11.60;;;;;;;-145.18;100.00;46660.41;6181607;23;20430;-67
2023/04/05 04:06:10;;;;;;;20.43;12.30;;;;;;;-145.18;100.00;46660.41;6182017;23;20040;-67
2023/04/05 04:08:37;;;;;;;22.13;13.15;;;;;;;-145.18;100.00;46625.22;6182270;23;20021;-68
2023/04/05 04:11:02;;;;;;;20.40;13.57;;;;;;;-145.18;100.00;46660.41;6181930;23;20009;-68
2023/04/05 04:13:28;;;;;;;23.47;12.57;;;;;;;-145.18;100.00;46652.59;6181835;23;20009;-67
2023/04/05 04:15:53;;;;;;;20.03;13.07;;;;;;;-145.18;100.00;46652.59;6181422;23;20016;-67
2023/04/05 04:18:18;;;;;;;23.90;14.40;;;;;;;-145.18;100.00;46642.81;6182053;23;20005;-67
2023/04/05 04:20:44;;;;;;;22.47;13.43;;;;;;;-145.18;100.00;46650.63;6179591;23;20009;-67
2023/04/05 04:23:09;;;;;;;23.77;13.03;;;;;;;-145.18;100.00;46652.59;6155007;23;20044;-68
2023/04/05 04:25:36;;;;;;;25.10;13.63;;;;;;;-145.18;100.00;46638.91;6181906;23;20012;-67
2023/04/05 04:28:05;;;;;;;25.35;13.90;;;;;;;-145.18;100.00;46642.81;6181556;23;20064;-68
2023/04/05 04:30:33;;;;;;;21.75;13.38;;;;;;;-145.18;100.00;46636.94;6182219;23;20009;-67
2023/04/05 04:33:02;;;;;;;20.52;13.25;;;;;;;-145.18;100.00;46652.59;6181201;23;20009;-68
2023/04/05 04:35:29;;;;;;;22.50;13.90;;;;;;;-145.18;100.00;46654.53;6181926;23;20308;-67
2023/04/05 04:37:59;;;;;;;22.55;13.57;;;;;;;-145.18;100.00;46640.88;6181494;23;20005;-68
2023/04/05 04:40:37;;;;;;;22.85;12.75;;;;;;;-145.18;100.00;46642.81;6181940;23;20001;-67
2023/04/05 04:43:08;;;;;;;27.08;12.70;;;;;;;-145.18;100.00;46640.88;6181428;23;20001;-67
2023/04/05 04:45:36;;;;;;;22.55;12.68;;;;;;;-145.18;100.00;46656.50;6181835;23;20084;-67
2023/04/05 04:48:03;;;;;;;19.90;12.32;;;;;;;-145.18;100.00;46656.50;6181303;23;20001;-67
2023/04/05 04:50:30;;;;;;;19.95;12.75;;;;;;;-145.18;100.00;46660.41;6180901;23;20012;-67
2023/04/05 04:52:57;;;;;;;23.13;12.05;;;;;;;-145.18;100.00;46656.50;6181063;23;20012;-67
2023/04/05 04:55:24;;;;;;;22.05;12.43;;;;;;;-145.18;100.00;46654.53;6155580;23;20009;-67
2023/04/05 04:57:54;;;;;;;19.35;12.27;;;;;;;-145.18;100.00;46660.41;6180657;23;20370;-67
2023/04/05 05:00:21;;;;;;;20.75;12.15;;;;;;;-145.18;100.00;46652.59;6182851;23;20028;-67
2023/04/05 05:02:46;;;;;;;25.10;12.50;;;;;;;-145.18;100.00;46650.63;6181423;23;20434;-67
2023/04/05 05:05:12;;;;;;;18.97;12.80;;;;;;;-145.18;100.00;46654.53;6182501;23;20024;-67
2023/04/05 05:07:40;;;;;;;19.52;11.82;;;;;;;-145.18;100.00;46660.41;6182604;23;20422;-67
2023/04/05 05:10:07;;;;;;;21.35;12.82;;;;;;;-145.18;100.00;46654.53;6183150;23;20009;-67
2023/04/05 05:12:32;;;;;;;22.30;11.23;;;;;;;-145.18;100.00;46660.41;6183028;23;20013;-67
2023/04/05 05:14:58;;;;;;;22.73;12.50;;;;;;;-145.18;100.00;46652.59;6183658;23;20012;-67
2023/04/05 05:17:23;;;;;;;21.97;11.30;;;;;;;-145.18;100.00;46619.38;6183641;23;20012;-67
2023/04/05 05:19:49;;;;;;;20.87;11.23;;;;;;;-145.18;100.00;46656.50;6183538;23;20009;-67
2023/04/05 05:22:15;;;;;;;19.47;11.57;;;;;;;-145.18;100.00;46627.19;6183609;23;20017;-67
2023/04/05 05:24:41;;;;;;;19.47;11.47;;;;;;;-145.18;100.00;46640.88;6183624;23;20334;-67
2023/04/05 05:27:06;;;;;;;21.05;12.20;;;;;;;-145.18;100.00;46633.06;6183184;23;20005;-67
2023/04/05 05:29:32;;;;;;;18.93;11.70;;;;;;;-145.18;100.00;46619.38;6183266;23;20024;-67
2023/04/05 05:31:57;;;;;;;16.57;10.63;;;;;;;-145.18;100.00;46644.78;6183187;23;20338;-67
2023/04/05 05:34:23;;;;;;;21.53;11.00;;;;;;;-145.18;100.00;46650.63;6183159;23;20005;-67
2023/04/05 05:36:48;;;;;;;20.17;9.97;;;;;;;-145.18;100.00;46635.00;6157129;23;20379;-67
2023/04/05 05:39:14;;;;;;;19.53;10.90;;;;;;;-145.18;100.00;46644.78;6182939;23;20060;-67
2023/04/05 05:41:40;;;;;;;18.70;9.73;;;;;;;-145.18;100.00;46644.78;6183526;23;20036;-67
2023/04/05 05:44:05;;;;;;;18.67;10.97;;;;;;;-145.18;100.00;46652.59;6183014;23;20005;-68
2023/04/05 05:46:31;;;;;;;18.73;10.13;;;;;;;-145.18;100.00;46677.97;6183422;23;20091;-67
2023/04/05 05:48:56;;;;;;;16.23;10.63;;;;;;;-145.18;100.00;46681.88;6182567;23;20016;-67
2023/04/05 05:51:21;;;;;;;15.33;9.43;;;;;;;-145.18;100.00;46674.06;6182570;23;20083;-67
2023/04/05 05:53:47;;;;;;;18.10;10.23;;;;;;;-145.18;100.00;46677.97;6182147;23;20036;-67
2023/04/05 05:56:12;;;;;;;17.43;10.07;;;;;;;-145.18;100.00;46683.84;6183118;23;20017;-67
2023/04/05 05:58:38;;;;;;;17.80;9.70;;;;;;;-145.18;100.00;46687.75;6182883;23;20333;-67
2023/04/05 06:01:06;;;;;;;18.87;9.80;;;;;;;-145.18;100.00;46717.03;6183035;23;20009;-67
2023/04/05 06:03:32;;;;;;;15.63;10.05;;;;;;;-145.18;100.00;46736.56;6182448;23;20071;-67
2023/04/05 06:05:58;;;;;;;20.30;9.95;;;;;;;-145.18;100.00;46746.34;6182723;23;20541;-67
2023/04/05 06:08:24;;;;;;;18.57;10.07;;;;;;;-145.18;100.00;46750.25;6183044;23;20009;-67
2023/04/05 06:10:51;;;;;;;17.63;10.13;;;;;;;-145.18;100.00;46767.84;6182239;23;20688;-67
2023/04/05 06:13:16;;;;;;;19.55;10.65;;;;;;;-145.18;100.00;46781.50;6182528;23;20054;-67
2023/04/05 06:15:42;;;;;;;17.07;10.07;;;;;;;-145.18;100.00;46785.41;6183087;23;20009;-67
2023/04/05 06:18:08;;;;;;;18.70;10.70;;;;;;;-145.18;100.00;46793.22;6182553;23;20457;-67
2023/04/05 06:20:34;;;;;;;18.67;10.57;;;;;;;-145.18;100.00;46801.03;6183190;23;20013;-67
2023/04/05 06:23:00;;;;;;;18.17;10.40;;;;;;;-145.18;100.00;46797.13;6182157;23;20705;-67
2023/04/05 06:25:25;;;;;;;16.57;10.57;;;;;;;-145.18;100.00;46814.72;6181824;23;20009;-67
2023/04/05 06:27:51;;;;;;;23.93;11.57;;;;;;;-145.18;100.00;46842.06;6181236;23;20013;-67
2023/04/05 06:30:16;;;;;;;21.90;11.03;;;;;;;-145.18;100.00;46828.38;6182638;23;20028;-67
2023/04/05 06:32:41;;;;;;;17.90;10.87;;;;;;;-145.18;100.00;46824.47;6182472;23;20017;-68
2023/04/05 06:35:07;;;;;;;17.83;10.60;;;;;;;-145.18;100.00;46836.19;6182046;23;20016;-68
2023/04/05 06:37:32;;;;;;;16.40;10.07;;;;;;;-145.18;100.00;46822.53;6182435;23;20103;-68
2023/04/05 06:39:58;;;;;;;22.43;10.57;;;;;;;-145.18;100.00;46820.56;6179836;23;20088;-68
2023/04/05 06:42:23;;;;;;;17.80;11.27;;;;;;;-145.18;100.00;46824.47;6182186;23;20580;-68
2023/04/05 06:44:49;;;;;;;16.70;10.37;;;;;;;-145.18;100.00;46836.19;6182747;23;20004;-68
2023/04/05 06:47:14;;;;;;;19.20;11.07;;;;;;;-145.18;100.00;46830.34;6181752;23;20005;-69
2023/04/05 06:49:40;;;;;;;17.90;10.53;;;;;;;-145.18;100.00;46826.44;6182511;23;20063;-69
2023/04/05 06:52:05;;;;;;;21.30;11.10;;;;;;;-145.18;100.00;46824.47;6182111;23;20096;-69
2023/04/05 06:54:32;;;;;;;19.50;10.53;;;;;;;-145.18;100.00;46840.09;6155236;23;20066;-69
2023/04/05 06:56:58;;;;;;;22.05;10.75;;;;;;;-145.18;100.00;46863.53;6181878;23;20031;-70
2023/04/05 06:59:23;;;;;;;20.73;10.73;;;;;;;-145.18;100.00;46863.53;6182342;23;20474;-70
2023/04/05 07:01:48;;;;;;;15.90;10.57;;;;;;;-145.18;100.00;46914.34;6180991;23;20029;-70
2023/04/05 07:04:14;;;;;;;21.47;11.33;;;;;;;-145.18;100.00;46959.25;6182143;23;20092;-70
2023/04/05 07:06:39;;;;;;;16.93;10.53;;;;;;;-145.18;100.00;47090.16;6182429;23;20031;-70
2023/04/05 07:09:05;;;;;;;17.73;9.83;;;;;;;-145.18;100.00;47211.28;6181334;23;20016;-71
2023/04/05 07:11:33;;;;;;;18.13;9.60;;;;;;;-145.18;100.00;47482.84;6182352;23;20066;-71
2023/04/05 07:13:59;;;;;;;20.77;9.40;;;;;;;-145.18;100.00;47641.09;6181502;23;20024;-71
2023/04/05 07:16:25;;;;;;;15.07;10.17;;;;;;;-145.18;100.00;47695.81;6156209;23;20243;-71
2023/04/05 07:18:50;;;;;;;14.87;9.27;;;;;;;-145.18;100.00;47686.03;6182357;23;20044;-72
2023/04/05 07:21:16;;;;;;;15.00;9.50;;;;;;;-145.18;100.00;47666.50;6182206;23;20005;-72
2023/04/05 07:23:41;;;;;;;16.87;9.60;;;;;;;-145.18;100.00;47678.22;6181893;23;20088;-72
2023/04/05 07:26:07;;;;;;;16.57;10.13;;;;;;;-145.18;100.00;47654.78;6182338;23;20493;-72
2023/04/05 07:28:34;;;;;;;19.77;9.87;;;;;;;-145.18;100.00;47648.91;6180398;23;20009;-73
2023/04/05 07:31:00;;;;;;;17.33;9.70;;;;;;;-145.18;100.00;47617.66;6181179;23;20009;-72
2023/04/05 07:33:26;;;;;;;17.97;9.30;;;;;;;-145.18;100.00;47619.59;6181301;23;20277;-72
2023/04/05 07:35:53;;;;;;;16.03;9.10;;;;;;;-145.18;100.00;47623.50;6181840;23;20255;-73
2023/04/05 07:38:18;;;;;;;16.97;9.40;;;;;;;-145.18;100.00;47596.16;6181463;23;20009;-73
2023/04/05 07:40:44;;;;;;;14.13;8.27;;;;;;;-145.18;100.00;47590.28;6181379;23;20243;-73
2023/04/05 07:43:09;;;;;;;15.70;9.27;;;;;;;-145.18;100.00;47578.56;6181944;23;20380;-73
2023/04/05 07:45:35;;;;;;;16.93;8.87;;;;;;;-145.18;100.00;47586.38;6181799;23;20001;-73
2023/04/05 07:48:00;;;;;;;14.77;8.73;;;;;;;-145.18;100.00;47566.84;6180055;23;20032;-74
2023/04/05 07:50:26;;;;;;;19.73;9.67;;;;;;;-145.18;100.00;47562.94;6181388;23;20039;-73
2023/04/05 07:52:51;;;;;;;17.27;8.77;;;;;;;-145.18;100.00;47576.63;6181884;23;20009;-74
2023/04/05 07:55:17;;;;;;;20.60;8.03;;;;;;;-145.18;100.00;47568.81;6181302;23;20005;-74
2023/04/05 07:57:42;;;;;;;17.13;9.00;;;;;;;-145.18;100.00;47555.13;6181530;23;20764;-74
2023/04/05 08:00:12;;;;;;;14.17;8.53;;;;;;;-145.18;100.00;47535.59;6180736;23;20035;-74
2023/04/05 08:02:37;;;;;;;18.00;9.63;;;;;;;-145.18;100.00;47535.59;6177816;23;20031;-74
2023/04/05 08:05:03;;;;;;;15.33;8.80;;;;;;;-145.18;100.00;47545.34;6181733;23;20235;-75
2023/04/05 08:07:29;;;;;;;19.00;8.63;;;;;;;-145.18;100.00;47549.25;6155085;23;20095;-73
2023/04/05 08:09:56;;;;;;;17.47;8.13;;;;;;;-145.18;100.00;47529.72;6181395;23;20645;-74
2023/04/05 08:12:22;;;;;;;17.33;8.20;;;;;;;-145.18;100.00;47519.97;6182102;23;20037;-74
2023/04/05 08:14:48;;;;;;;13.93;8.77;;;;;;;-145.18;100.00;47506.28;6182042;23;20595;-74
2023/04/05 08:17:15;;;;;;;13.73;8.30;;;;;;;-145.18;100.00;47519.97;6181720;23;20226;-74
2023/04/05 08:19:40;;;;;;;13.13;7.20;;;;;;;-145.18;100.00;47504.31;6181249;23;20015;-74
2023/04/05 08:22:05;;;;;;;17.00;7.63;;;;;;;-145.18;100.00;47512.16;6181859;23;20383;-74
2023/04/05 08:24:31;;;;;;;11.37;7.63;;;;;;;-145.18;100.00;47490.66;6179692;23;20009;-74
2023/04/05 08:26:56;;;;;;;16.80;7.90;;;;;;;-145.18;100.00;47512.16;6181702;23;20088;-74
2023/04/05 08:29:22;;;;;;;18.57;6.50;;;;;;;-145.18;100.00;47480.88;6181812;23;20001;-74
2023/04/05 08:31:47;;;;;;;14.83;7.57;;;;;;;-145.18;100.00;47488.69;6181980;23;20434;-74
2023/04/05 08:34:12;;;;;;;12.87;7.27;;;;;;;-145.18;100.00;47478.94;6182314;23;20206;-74
2023/04/05 08:36:38;;;;;;;13.27;6.97;;;;;;;-145.18;100.00;47473.06;6183801;23;20033;-74
2023/04/05 08:39:03;;;;;;;11.00;5.73;;;;;;;-145.18;100.00;47478.94;6183267;23;20009;-74
2023/04/05 08:41:35;;;;;;;13.50;6.27;;;;;;;-145.18;100.00;47467.22;6183950;23;20013;-74
2023/04/05 08:44:04;;;;;;;12.33;5.60;;;;;;;-145.18;100.00;47465.25;6183598;23;20418;-75
2023/04/05 08:46:32;;;;;;;13.03;6.90;;;;;;;-145.18;100.00;47447.66;6183734;23;20227;-74
2023/04/05 08:48:58;;;;;;;10.33;6.60;;;;;;;-145.18;100.00;47467.22;6183018;23;20231;-74
2023/04/05 08:51:25;;;;;;;12.60;6.27;;;;;;;-145.18;100.00;47461.34;6184173;23;20303;-74
2023/04/05 08:53:51;;;;;;;14.87;6.40;;;;;;;-145.18;100.00;47439.84;6183424;23;20016;-74
2023/04/05 08:56:30;;;;;;;11.03;6.60;;;;;;;-145.18;100.00;47461.34;6183616;23;20234;-75
2023/04/05 08:59:06;;;;;;;13.93;6.57;;;;;;;-145.18;100.00;47453.53;6183351;23;20254;-74
2023/04/05 09:01:35;;;;;;;13.67;6.40;;;;;;;-145.18;100.00;47443.75;6183655;23;20239;-74
2023/04/05 09:04:06;;;;;;;19.50;8.70;;;;;;;-145.18;100.00;47422.28;6182616;23;20243;-74
2023/04/05 09:06:35;;;;;;;11.93;6.67;;;;;;;-145.18;100.00;47434.00;6183529;23;20234;-74
2023/04/05 09:09:05;;;;;;;15.63;7.10;;;;;;;-145.18;100.00;47418.38;6183180;23;20661;-75
2023/04/05 09:11:32;;;;;;;26.90;9.67;;;;;;;-145.18;89.49;47426.19;6183525;23;20230;-75
2023/04/05 09:13:57;;;;;;;16.90;8.40;;;;;;;-145.18;100.00;47416.41;6182760;23;20235;-74
2023/04/05 09:16:26;;;;;;;15.63;7.30;;;;;;;-145.18;100.00;47422.28;6183547;23;20322;-75
2023/04/05 09:18:51;;;;;;;11.23;5.40;;;;;;;-145.18;100.00;47402.72;6183163;23;20032;-75
2023/04/05 09:21:16;;;;;;;13.33;6.30;;;;;;;-145.18;99.46;47416.41;6183433;23;20231;-74
2023/04/05 09:23:51;;;;;;;12.07;5.33;;;;;;;-145.18;100.00;47424.22;6183057;23;20009;-74
2023/04/05 09:26:18;;;;;;;19.15;6.32;;;;;;;-145.18;100.00;47402.72;6183401;23;20773;-75
2023/04/05 09:28:44;;;;;;;13.17;5.20;;;;;;;-145.18;100.00;47402.72;6183043;23;20009;-74
2023/04/05 09:31:28;;;;;;;11.50;5.40;;;;;;;-145.18;100.00;47392.97;6183415;23;20242;-75
2023/04/05 09:33:57;;;;;;;11.30;5.60;;;;;;;-145.18;100.00;47394.91;6156955;23;20029;-75
2023/04/05 09:36:22;;;;;;;10.83;5.23;;;;;;;-145.18;100.00;47377.34;6156520;23;20576;-75
2023/04/05 09:38:47;;;;;;;10.67;5.57;;;;;;;-145.18;94.42;47383.19;6182902;23;20235;-74
2023/04/05 09:41:13;;;;;;;10.33;5.37;;;;;;;-145.18;91.94;47377.34;6182934;23;20216;-74
2023/04/05 09:43:39;;;;;;;12.00;5.73;;;;;;;-145.18;87.16;47383.19;6182536;23;20009;-74
2023/04/05 09:46:05;;;;;;;9.63;4.57;;;;;;;-145.18;90.34;47363.66;6182612;23;20077;-75
2023/04/05 09:48:49;;;;;;;8.00;5.13;;;;;;;-145.18;95.52;47396.88;6182715;23;20231;-75
2023/04/05 09:51:18;;;;;;;8.60;4.93;;;;;;;-145.18;100.00;47371.47;6182536;23;20533;-74
2023/04/05 09:54:15;;;;;;;13.27;5.00;;;;;;;-145.18;90.48;47363.66;6182835;23;20250;-74
2023/04/05 09:56:53;;;;;;;10.33;5.73;;;;;;;-145.18;100.00;47363.66;6100891;23;20243;-75
2023/04/05 09:59:18;;;;;;;9.97;5.73;;;;;;;-145.18;98.95;47359.75;6182356;23;20265;-75
2023/04/05 10:01:43;;;;;;;10.70;5.50;;;;;;;-145.18;100.00;47355.84;6156066;23;20672;-75
2023/04/05 10:04:09;;;;;;;7.37;4.83;;;;;;;-145.18;100.00;47353.88;6181683;23;20017;-74
2023/04/05 10:06:39;;;;;;;8.33;4.77;;;;;;;-145.18;100.00;47353.88;6182375;23;20055;-74
2023/04/05 10:09:06;;;;;;;14.17;5.20;;;;;;;-145.18;100.00;47371.47;6181908;23;20441;-75
2023/04/05 10:11:33;;;;;;;9.10;4.80;;;;;;;-145.18;100.00;47369.53;6182659;23;20245;-75
2023/04/05 10:14:04;;;;;;;8.07;5.00;;;;;;;-145.18;100.00;47363.66;6181843;23;20235;-74
2023/04/05 10:16:33;;;;;;;9.03;4.67;;;;;;;-145.18;100.00;47336.31;6182215;23;20835;-74
2023/04/05 10:18:58;;;;;;;9.73;5.40;;;;;;;-145.18;97.74;47330.44;6181977;23;20263;-74
2023/04/05 10:21:30;;;;;;;11.40;6.33;;;;;;;-145.18;88.33;47326.53;6183237;23;20009;-74
2023/04/05 10:24:23;;;;;;;16.90;5.80;;;;;;;-145.18;85.60;47355.84;6182225;23;20059;-74
2023/04/05 10:27:07;;;;;;;10.90;6.50;;;;;;;-145.18;83.20;47340.22;6182066;23;20305;-74
2023/04/05 10:30:04;;;;;;;10.30;5.80;;;;;;;-145.18;93.52;47355.84;6181070;23;20227;-74
2023/04/05 10:32:42;;;;;;;11.73;5.70;;;;;;;-145.18;84.10;47328.50;6179692;23;20258;-74
2023/04/05 10:35:15;;;;;;;10.00;5.13;;;;;;;-145.18;88.00;47320.69;6181443;23;20223;-74
2023/04/05 10:37:48;;;;;;;9.73;5.57;;;;;;;-145.18;79.58;47322.63;6182015;23;20005;-73
2023/04/05 10:40:17;;;;;;;9.97;5.23;;;;;;;-145.18;73.40;47297.22;6181448;23;20492;-74
2023/04/05 10:42:43;;;;;;;10.97;5.70;;;;;;;-145.18;64.88;47324.59;6182891;23;20005;-73
2023/04/05 10:45:11;;;;;;;12.80;6.13;;;;;;;-145.18;72.22;47334.34;6182135;23;20305;-74
2023/04/05 10:47:43;;;;;;;10.13;5.53;;;;;;;-145.18;82.79;47336.31;6183266;23;20009;-74
2023/04/05 10:50:16;;;;;;;12.57;5.90;;;;;;;-145.18;81.76;47332.41;6182325;23;20226;-74
2023/04/05 10:52:42;;;;;;;8.97;5.93;;;;;;;-145.18;64.05;47314.81;6182723;23;20253;-74
2023/04/05 10:55:09;;;;;;;10.63;6.47;;;;;;;-145.18;80.51;47332.41;6182511;23;20009;-73
2023/04/05 10:57:36;;;;;;;7.00;5.50;;;;;;;-145.18;76.35;47330.44;6182858;23;20016;-74
2023/04/05 11:00:01;;;;;;;13.07;5.93;;;;;;;-145.18;91.91;47312.88;6182135;23;20028;-73